Terminal Aerodrome Forecast
Issued by NWS Sterling, VA

Current Version | Previous Version | Text Only | Print | Product List | Glossary Off
Versions: 1 2 3 4 5 6 7 8 9 10 11 12 13 14

471
FTUS41 KLWX 241129
TAFMRB
TAF
KMRB 241129Z 2412/2512 VRB03KT P6SM -RA SCT025 OVC050
     FM241400 07008KT P6SM VCSH SCT025 OVC050
     FM241800 07008G16KT 6SM -RA SCT025 OVC050
     FM250000 05009KT 5SM -RA BR BKN015 OVC050
     FM250400 05008KT 5SM -RA BR BKN008 OVC015=

USA.gov is the U.S. government's official web portal to all federal, state and local government web resources and services.